createdAt,value
2019-04-21T00:00:45.188Z,13.00
2019-04-21T00:03:18.135Z,12.90
2019-04-21T00:06:07.527Z,12.90
2019-04-21T00:13:31.338Z,12.90
2019-04-21T00:15:53.198Z,12.90
2019-04-21T00:18:40.744Z,12.90
2019-04-21T00:21:16.219Z,12.90
2019-04-21T00:23:53.858Z,12.90
2019-04-21T00:26:23.961Z,12.90
2019-04-21T00:29:07.286Z,12.80
2019-04-21T00:31:24.640Z,12.70
2019-04-21T00:33:42.710Z,12.70
2019-04-21T00:36:14.887Z,12.60
2019-04-21T00:39:06.872Z,12.50
2019-04-21T00:41:29.598Z,12.50
2019-04-21T00:43:57.056Z,12.40
2019-04-21T00:46:32.418Z,12.50
2019-04-21T00:49:02.005Z,12.30
2019-04-21T00:51:46.643Z,12.00
2019-04-21T00:54:13.119Z,11.90
2019-04-21T00:56:41.032Z,12.00
2019-04-21T00:59:13.633Z,11.90
2019-04-21T01:01:37.917Z,12.00
2019-04-21T01:04:11.338Z,11.80
2019-04-21T01:06:43.477Z,12.00
2019-04-21T01:09:07.700Z,12.20
2019-04-21T01:11:47.478Z,12.20
2019-04-21T01:14:28.050Z,12.10
2019-04-21T01:16:45.832Z,12.10
2019-04-21T01:19:14.369Z,12.10
2019-04-21T01:21:25.571Z,12.00
2019-04-21T01:24:03.046Z,12.00
2019-04-21T01:26:39.044Z,12.00
2019-04-21T01:29:11.908Z,12.00
2019-04-21T01:31:42.611Z,11.90
2019-04-21T01:34:19.137Z,12.00
2019-04-21T01:36:46.096Z,11.90
2019-04-21T01:39:21.324Z,11.80
2019-04-21T01:41:50.861Z,11.90
2019-04-21T01:44:25.743Z,11.90
2019-04-21T01:46:49.335Z,11.80
2019-04-21T01:49:15.783Z,11.80
2019-04-21T01:52:10.070Z,11.80
2019-04-21T01:54:53.829Z,11.70
2019-04-21T01:57:26.276Z,11.60
2019-04-21T01:59:54.349Z,11.50
2019-04-21T02:02:32.236Z,11.50
2019-04-21T02:05:05.805Z,11.50
2019-04-21T02:07:27.103Z,11.50
2019-04-21T02:10:09.171Z,11.50
2019-04-21T02:12:31.472Z,11.40
2019-04-21T02:15:09.508Z,11.30
2019-04-21T02:17:29.696Z,11.30
2019-04-21T02:19:56.127Z,11.30
2019-04-21T02:22:55.477Z,11.20
2019-04-21T02:25:11.288Z,11.20
2019-04-21T02:27:36.585Z,11.10
2019-04-21T02:30:24.247Z,10.90
2019-04-21T02:32:47.901Z,11.00
2019-04-21T02:37:58.753Z,11.00
2019-04-21T02:40:25.503Z,11.10
2019-04-21T02:43:03.226Z,11.00
2019-04-21T02:45:22.903Z,11.00
2019-04-21T02:47:54.840Z,10.90
2019-04-21T02:52:55.440Z,10.90
2019-04-21T02:55:22.015Z,10.90
2019-04-21T03:00:32.265Z,10.90
2019-04-21T03:03:34.359Z,10.80
2019-04-21T03:06:21.065Z,10.70
2019-04-21T03:11:12.244Z,10.70
2019-04-21T03:18:46.519Z,10.70
2019-04-21T03:21:07.106Z,10.50
2019-04-21T03:23:55.756Z,10.50
2019-04-21T03:28:58.743Z,10.40
2019-04-21T03:34:18.289Z,10.40
2019-04-21T03:41:10.518Z,10.40
2019-04-21T03:43:43.779Z,10.40
2019-04-21T03:46:21.109Z,10.40
2019-04-21T03:48:52.034Z,10.40
2019-04-21T03:51:23.527Z,10.40
2019-04-21T03:53:59.701Z,10.40
2019-04-21T03:56:48.594Z,10.30
2019-04-21T03:58:56.238Z,10.20
2019-04-21T04:01:35.154Z,10.20
2019-04-21T04:04:27.924Z,10.20
2019-04-21T04:07:25.004Z,10.10
2019-04-21T04:10:00.061Z,10.00
2019-04-21T04:12:19.002Z,10.10
2019-04-21T04:14:50.532Z,10.10
2019-04-21T04:17:20.377Z,10.00
2019-04-21T04:24:57.581Z,10.10
2019-04-21T04:27:49.495Z,9.90
2019-04-21T04:29:59.334Z,9.80
2019-04-21T04:32:32.445Z,9.80
2019-04-21T04:35:06.963Z,9.90
2019-04-21T04:37:54.037Z,9.90
2019-04-21T04:40:14.594Z,9.80
2019-04-21T04:43:07.803Z,9.90
2019-04-21T04:46:13.606Z,9.90
2019-04-21T04:48:05.861Z,10.00
2019-04-21T04:50:41.074Z,9.90
2019-04-21T04:53:15.833Z,9.90
2019-04-21T04:58:16.027Z,10.10
2019-04-21T05:03:14.917Z,10.10
2019-04-21T05:06:37.130Z,10.10
2019-04-21T05:11:32.801Z,10.10
2019-04-21T05:13:55.747Z,10.10
2019-04-21T05:16:24.097Z,10.10
2019-04-21T05:21:30.303Z,10.30
2019-04-21T05:23:42.689Z,10.30
2019-04-21T05:26:08.268Z,10.40
2019-04-21T05:28:36.947Z,10.40
2019-04-21T05:31:39.907Z,10.40
2019-04-21T05:34:19.242Z,10.50
2019-04-21T05:36:52.435Z,10.50
2019-04-21T05:39:23.125Z,10.60
2019-04-21T05:41:49.093Z,10.70
2019-04-21T05:44:35.518Z,10.70
2019-04-21T05:47:15.864Z,10.70
2019-04-21T05:49:45.202Z,10.70
2019-04-21T05:52:07.793Z,10.80
2019-04-21T05:54:52.843Z,10.80
2019-04-21T05:57:14.662Z,10.90
2019-04-21T05:59:51.587Z,10.90
2019-04-21T06:02:22.330Z,11.10
2019-04-21T06:07:25.696Z,11.10
2019-04-21T06:09:55.475Z,11.20
2019-04-21T06:12:21.141Z,11.30
2019-04-21T06:14:55.849Z,11.40
2019-04-21T06:17:33.128Z,11.40
2019-04-21T06:22:23.969Z,11.40
2019-04-21T06:30:01.117Z,11.70
2019-04-21T06:37:59.047Z,11.90
2019-04-21T06:40:21.610Z,12.00
2019-04-21T06:42:40.325Z,12.10
2019-04-21T06:45:22.720Z,12.10
2019-04-21T06:48:04.743Z,12.20
2019-04-21T06:50:18.821Z,12.20
2019-04-21T06:55:24.229Z,12.30
2019-04-21T06:57:46.263Z,12.40
2019-04-21T07:00:18.494Z,12.40
2019-04-21T07:03:14.207Z,12.50
2019-04-21T07:05:26.368Z,12.60
2019-04-21T07:08:08.859Z,12.60
2019-04-21T07:12:54.300Z,12.80
2019-04-21T07:15:34.113Z,12.80
2019-04-21T07:17:59.528Z,12.90
2019-04-21T07:20:28.113Z,12.90
2019-04-21T07:23:04.623Z,12.90
2019-04-21T07:25:32.683Z,12.90
2019-04-21T07:28:02.892Z,13.10
2019-04-21T07:33:19.073Z,13.20
2019-04-21T07:35:31.702Z,13.30
2019-04-21T07:38:03.037Z,13.40
2019-04-21T07:40:29.051Z,13.50
2019-04-21T07:43:02.728Z,13.40
2019-04-21T07:45:33.520Z,13.50
2019-04-21T07:48:08.279Z,13.50
2019-04-21T07:50:58.050Z,13.50
2019-04-21T07:55:46.961Z,13.60
2019-04-21T07:58:35.388Z,13.70
2019-04-21T08:01:09.500Z,13.70
2019-04-21T08:03:38.910Z,13.80
2019-04-21T08:06:12.220Z,13.90
2019-04-21T08:08:35.488Z,13.90
2019-04-21T08:11:07.356Z,14.00
2019-04-21T08:13:53.581Z,14.00
2019-04-21T08:16:13.929Z,14.10
2019-04-21T08:18:39.494Z,14.10
2019-04-21T08:21:11.160Z,14.20
2019-04-21T08:23:41.619Z,14.30
2019-04-21T08:26:09.910Z,14.30
2019-04-21T08:28:49.544Z,14.30
2019-04-21T08:31:14.621Z,14.50
2019-04-21T08:33:46.581Z,14.50
2019-04-21T08:36:27.157Z,14.60
2019-04-21T08:38:48.422Z,14.60
2019-04-21T08:41:18.447Z,14.70
2019-04-21T08:43:51.359Z,14.80
2019-04-21T08:46:18.935Z,14.90
2019-04-21T08:48:52.650Z,14.90
2019-04-21T08:53:56.774Z,15.00
2019-04-21T08:56:41.372Z,15.10
2019-04-21T08:59:38.834Z,15.20
2019-04-21T09:02:14.486Z,15.30
2019-04-21T09:04:41.175Z,15.30
2019-04-21T09:07:16.197Z,15.30
2019-04-21T09:09:59.555Z,15.40
2019-04-21T09:12:17.622Z,15.40
2019-04-21T09:14:41.557Z,15.50
2019-04-21T09:17:10.750Z,15.60
2019-04-21T09:20:07.899Z,15.70
2019-04-21T09:22:18.250Z,15.80
2019-04-21T09:24:50.167Z,15.90
2019-04-21T09:27:18.390Z,15.90
2019-04-21T09:29:39.256Z,15.90
2019-04-21T09:32:03.420Z,15.90
2019-04-21T09:34:37.006Z,16.00
2019-04-21T09:37:15.387Z,16.20
2019-04-21T09:39:39.709Z,16.30
2019-04-21T09:42:06.437Z,16.50
2019-04-21T09:44:40.146Z,16.50
2019-04-21T09:47:07.383Z,16.50
2019-04-21T09:49:38.029Z,16.40
2019-04-21T09:52:13.736Z,16.40
2019-04-21T09:54:50.559Z,16.60
2019-04-21T09:57:19.988Z,16.70
2019-04-21T09:59:42.147Z,16.80
2019-04-21T10:02:16.059Z,16.70
2019-04-21T10:04:42.470Z,16.90
2019-04-21T10:07:23.692Z,17.10
2019-04-21T10:09:43.577Z,17.10
2019-04-21T10:12:14.203Z,17.10
2019-04-21T10:14:43.353Z,17.20
2019-04-21T10:17:21.743Z,17.30
2019-04-21T10:19:51.001Z,17.30
2019-04-21T10:22:21.119Z,17.40
2019-04-21T10:24:50.326Z,17.40
2019-04-21T10:27:19.466Z,17.40
2019-04-21T10:29:49.088Z,17.50
2019-04-21T10:32:23.163Z,17.70
2019-04-21T10:34:50.004Z,17.70
2019-04-21T10:37:19.100Z,17.70
2019-04-21T10:39:49.548Z,17.80
2019-04-21T10:42:19.500Z,17.80
2019-04-21T10:44:49.402Z,18.00
2019-04-21T10:47:18.658Z,17.90
2019-04-21T10:49:48.671Z,17.90
2019-04-21T10:52:22.868Z,18.00
2019-04-21T10:55:11.191Z,18.00
2019-04-21T10:57:29.010Z,18.10
2019-04-21T11:00:01.014Z,18.10
2019-04-21T11:02:34.990Z,18.10
2019-04-21T11:05:04.830Z,18.30
2019-04-21T11:07:58.372Z,18.20
2019-04-21T11:10:18.296Z,18.40
2019-04-21T11:12:47.845Z,18.40
2019-04-21T11:15:17.193Z,18.40
2019-04-21T11:17:48.440Z,18.40
2019-04-21T11:20:17.301Z,18.40
2019-04-21T11:22:47.317Z,18.40
2019-04-21T11:25:17.778Z,18.50
2019-04-21T11:27:47.090Z,18.50
2019-04-21T11:30:17.542Z,18.50
2019-04-21T11:32:49.093Z,18.60
2019-04-21T11:35:17.511Z,18.70
2019-04-21T11:37:46.726Z,18.60
2019-04-21T11:40:18.134Z,18.80
2019-04-21T11:42:48.031Z,18.80
2019-04-21T11:45:30.437Z,18.80
2019-04-21T11:48:16.625Z,18.70
2019-04-21T11:50:46.701Z,18.70
2019-04-21T11:53:16.832Z,18.90
2019-04-21T11:55:48.474Z,19.00
2019-04-21T11:58:18.062Z,18.90
2019-04-21T12:00:50.901Z,19.00
2019-04-21T12:03:22.163Z,19.10
2019-04-21T12:05:51.348Z,19.10
2019-04-21T12:08:30.020Z,19.20
2019-04-21T12:10:51.511Z,19.10
2019-04-21T12:13:20.775Z,19.20
2019-04-21T12:15:49.845Z,19.30
2019-04-21T12:18:19.809Z,19.50
2019-04-21T12:20:49.296Z,19.60
2019-04-21T12:23:18.470Z,19.70
2019-04-21T12:25:49.451Z,19.60
2019-04-21T12:28:19.726Z,19.70
2019-04-21T12:30:51.967Z,19.80
2019-04-21T12:33:40.271Z,20.10
2019-04-21T12:36:09.707Z,20.10
2019-04-21T12:38:46.895Z,20.10
2019-04-21T12:41:10.667Z,20.40
2019-04-21T12:43:39.862Z,20.50
2019-04-21T12:46:09.701Z,20.60
2019-04-21T12:48:39.912Z,20.50
2019-04-21T12:51:10.127Z,20.60
2019-04-21T12:53:39.549Z,20.70
2019-04-21T12:56:09.471Z,21.00
2019-04-21T12:58:39.532Z,20.90
2019-04-21T13:01:09.320Z,21.00
2019-04-21T13:03:39.741Z,21.00
2019-04-21T13:06:09.982Z,21.10
2019-04-21T13:08:51.813Z,21.30
2019-04-21T13:11:11.344Z,21.30
2019-04-21T13:13:41.920Z,21.40
2019-04-21T13:16:11.676Z,21.50
2019-04-21T13:18:41.646Z,21.60
2019-04-21T13:21:12.078Z,21.70
2019-04-21T13:23:41.277Z,21.50
2019-04-21T13:26:11.416Z,21.60
2019-04-21T13:28:40.578Z,21.70
2019-04-21T13:31:09.762Z,22.00
2019-04-21T13:33:39.910Z,22.10
2019-04-21T13:36:09.677Z,22.20
2019-04-21T13:38:57.219Z,22.10
2019-04-21T13:41:29.456Z,22.10
2019-04-21T13:43:50.750Z,22.40
2019-04-21T13:46:20.687Z,22.30
2019-04-21T13:48:50.726Z,22.50
2019-04-21T13:51:19.957Z,22.80
2019-04-21T13:53:49.462Z,23.00
2019-04-21T13:56:18.575Z,23.30
2019-04-21T13:58:48.404Z,23.20
2019-04-21T14:01:18.051Z,23.30
2019-04-21T14:03:47.349Z,23.50
2019-04-21T14:06:16.560Z,23.70
2019-04-21T14:08:47.182Z,24.10
2019-04-21T14:11:17.546Z,24.20
2019-04-21T14:13:47.911Z,24.40
2019-04-21T14:16:18.181Z,24.60
2019-04-21T14:18:47.412Z,25.00
2019-04-21T14:21:16.384Z,25.10
2019-04-21T14:23:48.050Z,25.50
2019-04-21T14:26:16.348Z,25.70
2019-04-21T14:28:45.364Z,25.70
2019-04-21T14:31:14.515Z,25.80
2019-04-21T14:33:43.742Z,26.10
2019-04-21T14:36:12.933Z,26.20
2019-04-21T14:38:42.741Z,26.30
2019-04-21T14:41:12.452Z,26.10
2019-04-21T14:43:41.801Z,26.40
2019-04-21T14:46:22.180Z,26.90
2019-04-21T14:49:09.199Z,26.70
2019-04-21T14:51:52.791Z,26.70
2019-04-21T14:54:50.972Z,26.80
2019-04-21T14:57:21.200Z,26.80
2019-04-21T14:59:51.093Z,27.00
2019-04-21T15:02:20.375Z,27.00
2019-04-21T15:04:49.422Z,27.10
2019-04-21T15:07:19.246Z,27.50
2019-04-21T15:10:01.160Z,27.10
2019-04-21T15:12:20.143Z,27.20
2019-04-21T15:14:49.832Z,27.70
2019-04-21T15:17:21.198Z,27.60
2019-04-21T15:19:58.720Z,27.40
2019-04-21T15:22:20.839Z,27.60
2019-04-21T15:24:50.112Z,27.40
2019-04-21T15:27:19.222Z,27.20
2019-04-21T15:29:48.761Z,27.10
2019-04-21T15:32:18.786Z,27.10
2019-04-21T15:34:47.939Z,27.00
2019-04-21T15:37:17.875Z,27.20
2019-04-21T15:39:47.131Z,27.40
2019-04-21T15:42:16.758Z,27.30
2019-04-21T15:44:45.844Z,27.20
2019-04-21T15:47:15.893Z,27.10
2019-04-21T15:50:03.004Z,27.10
2019-04-21T15:52:27.944Z,26.80
2019-04-21T15:55:22.962Z,27.00
2019-04-21T15:58:03.192Z,27.00
2019-04-21T16:00:44.740Z,26.80
2019-04-21T16:03:13.898Z,26.70
2019-04-21T16:05:42.890Z,26.60
2019-04-21T16:08:12.261Z,26.60
2019-04-21T16:10:49.000Z,26.60
2019-04-21T16:13:12.200Z,26.50
2019-04-21T16:15:41.646Z,26.30
2019-04-21T16:18:12.045Z,26.20
2019-04-21T16:20:41.873Z,26.10
2019-04-21T16:23:10.956Z,26.10
2019-04-21T16:25:41.138Z,26.00
2019-04-21T16:28:11.082Z,26.00
2019-04-21T16:30:40.329Z,25.80
2019-04-21T16:33:10.200Z,25.80
2019-04-21T16:35:39.965Z,25.70
2019-04-21T16:38:09.064Z,25.70
2019-04-21T16:40:48.168Z,25.60
2019-04-21T16:43:09.968Z,25.50
2019-04-21T16:45:39.239Z,25.30
2019-04-21T16:48:09.478Z,25.30
2019-04-21T16:50:39.498Z,25.00
2019-04-21T16:53:18.030Z,25.00
2019-04-21T16:55:57.344Z,24.90
2019-04-21T16:58:38.962Z,24.80
2019-04-21T17:01:16.350Z,24.60
2019-04-21T17:03:44.382Z,24.60
2019-04-21T17:06:13.519Z,24.60
2019-04-21T17:08:43.045Z,24.50
2019-04-21T17:11:18.680Z,24.40
2019-04-21T17:13:43.027Z,24.30
2019-04-21T17:16:40.818Z,24.30
2019-04-21T17:18:53.870Z,24.20
2019-04-21T17:21:15.193Z,23.90
2019-04-21T17:23:44.396Z,23.90
2019-04-21T17:26:13.525Z,23.70
2019-04-21T17:28:42.676Z,23.60
2019-04-21T17:31:12.847Z,23.50
2019-04-21T17:33:43.461Z,23.40
2019-04-21T17:36:12.951Z,23.20
2019-04-21T17:38:42.013Z,23.10
2019-04-21T17:41:21.321Z,23.00
2019-04-21T17:43:43.540Z,22.90
2019-04-21T17:46:19.976Z,22.70
2019-04-21T17:48:43.499Z,22.50
2019-04-21T17:51:19.255Z,22.30
2019-04-21T17:54:00.770Z,22.20
2019-04-21T17:56:53.838Z,21.90
2019-04-21T17:59:28.062Z,21.70
2019-04-21T18:01:56.391Z,21.50
2019-04-21T18:04:35.953Z,21.40
2019-04-21T18:07:01.422Z,21.20
2019-04-21T18:09:44.101Z,21.10
2019-04-21T18:12:08.042Z,21.00
2019-04-21T18:14:22.241Z,20.80
2019-04-21T18:16:53.387Z,20.80
2019-04-21T18:19:26.728Z,20.60
2019-04-21T18:22:10.890Z,20.50
2019-04-21T18:24:50.104Z,20.40
2019-04-21T18:27:13.720Z,20.40
2019-04-21T18:29:44.316Z,20.30
2019-04-21T18:32:19.730Z,20.10
2019-04-21T18:35:05.909Z,20.10
2019-04-21T18:38:07.080Z,20.00
2019-04-21T18:40:29.775Z,19.80
2019-04-21T18:43:37.863Z,19.70
2019-04-21T18:46:23.101Z,19.60
2019-04-21T18:48:40.945Z,19.50
2019-04-21T18:51:18.675Z,19.50
2019-04-21T18:54:27.345Z,19.40
2019-04-21T18:56:33.856Z,19.30
2019-04-21T18:59:04.340Z,19.20
2019-04-21T19:01:36.550Z,19.10
2019-04-21T19:04:11.524Z,19.10
2019-04-21T19:06:54.399Z,19.00
2019-04-21T19:09:32.501Z,19.00
2019-04-21T19:12:00.837Z,18.80
2019-04-21T19:14:33.383Z,18.70
2019-04-21T19:22:06.301Z,18.50
2019-04-21T19:24:33.753Z,18.40
2019-04-21T19:27:06.217Z,18.40
2019-04-21T19:29:34.634Z,18.30
2019-04-21T19:32:08.367Z,18.30
2019-04-21T19:34:24.522Z,18.30
2019-04-21T19:36:56.895Z,18.10
2019-04-21T19:39:36.187Z,18.10
2019-04-21T19:42:00.516Z,18.00
2019-04-21T19:44:45.637Z,18.00
2019-04-21T19:47:10.746Z,18.10
2019-04-21T19:49:45.502Z,18.00
2019-04-21T19:52:02.938Z,17.90
2019-04-21T19:54:32.091Z,17.90
2019-04-21T19:56:55.509Z,17.90
2019-04-21T19:59:32.512Z,17.80
2019-04-21T20:01:56.208Z,17.70
2019-04-21T20:04:34.341Z,17.70
2019-04-21T20:07:02.750Z,17.60
2019-04-21T20:09:43.582Z,17.60
2019-04-21T20:12:10.687Z,17.50
2019-04-21T20:17:13.752Z,17.40
2019-04-21T20:19:30.326Z,17.40
2019-04-21T20:22:00.624Z,17.40
2019-04-21T20:24:33.666Z,17.30
2019-04-21T20:27:07.566Z,17.30
2019-04-21T20:29:49.943Z,17.30
2019-04-21T20:32:26.343Z,17.20
2019-04-21T20:34:56.593Z,17.20
2019-04-21T20:37:21.320Z,17.10
2019-04-21T20:39:42.857Z,16.90
2019-04-21T20:42:21.026Z,16.80
2019-04-21T20:45:13.496Z,16.70
2019-04-21T20:47:20.023Z,16.70
2019-04-21T20:49:50.826Z,16.70
2019-04-21T20:52:32.948Z,16.60
2019-04-21T20:54:53.908Z,16.60
2019-04-21T20:57:25.640Z,16.60
2019-04-21T20:59:57.937Z,16.60
2019-04-21T21:02:28.399Z,16.50
2019-04-21T21:04:52.719Z,16.30
2019-04-21T21:07:40.203Z,16.20
2019-04-21T21:10:04.427Z,16.10
2019-04-21T21:12:37.300Z,16.10
2019-04-21T21:14:57.579Z,16.00
2019-04-21T21:17:48.411Z,16.00
2019-04-21T21:20:07.590Z,16.10
2019-04-21T21:22:33.075Z,16.10
2019-04-21T21:25:03.918Z,16.10
2019-04-21T21:27:32.237Z,15.90
2019-04-21T21:30:05.528Z,15.90
2019-04-21T21:32:37.277Z,15.90
2019-04-21T21:35:09.490Z,15.80
2019-04-21T21:37:43.879Z,15.70
2019-04-21T21:40:11.153Z,15.80
2019-04-21T21:42:30.525Z,15.80
2019-04-21T21:45:02.839Z,15.80
2019-04-21T21:47:45.678Z,15.70
2019-04-21T21:50:07.365Z,15.70
2019-04-21T21:52:39.907Z,15.70
2019-04-21T21:54:58.076Z,15.70
2019-04-21T21:57:28.323Z,15.70
2019-04-21T22:00:00.879Z,15.70
2019-04-21T22:02:36.036Z,15.70
2019-04-21T22:05:07.725Z,15.60
2019-04-21T22:07:33.151Z,15.50
2019-04-21T22:10:02.171Z,15.50
2019-04-21T22:12:40.370Z,15.40
2019-04-21T22:15:08.945Z,15.50
2019-04-21T22:17:48.339Z,15.40
2019-04-21T22:20:22.548Z,15.20
2019-04-21T22:22:44.813Z,15.20
2019-04-21T22:25:12.705Z,15.20
2019-04-21T22:27:37.073Z,15.10
2019-04-21T22:30:10.826Z,15.00
2019-04-21T22:32:38.650Z,15.00
2019-04-21T22:35:21.743Z,14.90
2019-04-21T22:37:53.839Z,14.90
2019-04-21T22:40:21.823Z,15.00
2019-04-21T22:42:56.085Z,14.90
2019-04-21T22:45:15.472Z,14.90
2019-04-21T22:47:46.504Z,14.70
2019-04-21T22:50:26.857Z,14.70
2019-04-21T22:52:59.478Z,14.70
2019-04-21T22:55:30.891Z,14.80
2019-04-21T22:57:59.861Z,14.70
2019-04-21T23:00:30.132Z,14.60
2019-04-21T23:03:09.413Z,14.60
2019-04-21T23:05:37.270Z,14.60
2019-04-21T23:08:03.762Z,14.60
2019-04-21T23:10:32.341Z,14.60
2019-04-21T23:13:09.382Z,14.60
2019-04-21T23:15:39.471Z,14.60
2019-04-21T23:18:20.426Z,14.50
2019-04-21T23:20:56.421Z,14.50
2019-04-21T23:23:22.018Z,14.50
2019-04-21T23:25:46.033Z,14.40
2019-04-21T23:28:22.204Z,14.40
2019-04-21T23:31:00.843Z,14.30
2019-04-21T23:33:12.018Z,14.30
2019-04-21T23:35:42.386Z,14.10
2019-04-21T23:38:12.027Z,14.00
2019-04-21T23:40:49.986Z,13.90
2019-04-21T23:43:18.777Z,14.00
2019-04-21T23:45:44.834Z,13.90
2019-04-21T23:48:27.231Z,13.80
2019-04-21T23:50:52.364Z,13.80
2019-04-21T23:53:15.364Z,13.90
2019-04-21T23:55:45.371Z,13.90
2019-04-21T23:58:21.666Z,13.80
